Time;durP1;ratioP1;P1;durP2;ratioP2;P2;SDS_P1;SDS_P2;PMS_P1;PMS_P2;Temp;Humidity;BMP_temperature;BMP_pressure;BME280_temperature;BME280_humidity;BME280_pressure;Samples;Min_cycle;Max_cycle;Signal;HPM_P1;HPM_P2
2023/02/19 08:30:18;;;;;;;;;9.25;4.00;;;;;12.63;100.00;102640.63;5919386;23;46509;-68
2023/02/19 08:32:46;;;;;;;;;5.00;2.00;;;;;12.68;100.00;102635.56;4934638;28;49627;-68
2023/02/19 08:35:12;;;;;;;;;2.00;2.00;;;;;12.89;100.00;102647.00;4932303;28;50039;-66
2023/02/19 08:37:37;;;;;;;;;3.00;2.00;;;;;12.88;100.00;102632.94;4932187;28;49797;-66
2023/02/19 08:40:03;;;;;;;;;2.00;2.00;;;;;12.76;100.00;102590.25;4931909;28;49895;-68
2023/02/19 08:42:28;;;;;;;;;4.50;3.50;;;;;12.77;100.00;102583.25;4930885;28;51133;-66
2023/02/19 08:44:54;;;;;;;;;1.00;1.00;;;;;13.12;100.00;102645.28;4930381;28;51768;-67
2023/02/19 08:47:19;;;;;;;;;2.75;2.75;;;;;13.15;100.00;102640.16;4931425;28;49891;-66
2023/02/19 08:49:45;;;;;;;;;4.50;3.75;;;;;13.02;100.00;102617.66;4931026;28;49911;-66
2023/02/19 08:52:10;;;;;;;;;4.25;3.00;;;;;13.14;100.00;102625.19;4931655;28;49772;-69
2023/02/19 08:54:35;;;;;;;;;3.75;3.50;;;;;13.28;100.00;102644.22;4930651;28;49759;-67
2023/02/19 08:57:01;;;;;;;;;1.75;1.75;;;;;13.34;100.00;102644.47;4930811;28;49916;-67
2023/02/19 08:59:28;;;;;;;;;1.50;1.00;;;;;13.35;100.00;102640.97;4931953;28;50091;-66
2023/02/19 09:01:53;;;;;;;;;0.00;0.00;;;;;13.40;100.00;102628.84;4925428;28;49896;-65
2023/02/19 09:04:18;;;;;;;;;0.00;0.00;;;;;13.36;100.00;102632.22;4931764;28;50951;-65
2023/02/19 09:06:44;;;;;;;;;1.50;1.50;;;;;13.24;100.00;102585.19;4931635;28;49831;-65
2023/02/19 09:09:09;;;;;;;;;1.00;1.00;;;;;13.46;100.00;102616.81;4931821;28;50250;-66
2023/02/19 09:11:38;;;;;;;;;4.00;3.00;;;;;13.50;100.00;102627.47;4931472;28;49655;-66
2023/02/19 09:14:06;;;;;;;;;1.00;1.00;;;;;13.49;100.00;102628.31;4931598;28;51269;-67
2023/02/19 09:16:34;;;;;;;;;3.50;3.50;;;;;13.62;100.00;102651.72;4931251;28;49748;-69
2023/02/19 09:18:59;;;;;;;;;1.00;1.00;;;;;13.27;100.00;102590.56;4931562;28;50004;-67
2023/02/19 09:21:25;;;;;;;;;2.25;1.00;;;;;13.42;100.00;102616.66;4931685;28;50014;-67
2023/02/19 09:23:50;;;;;;;;;1.25;1.00;;;;;13.31;100.00;102608.28;4931352;28;50026;-68
2023/02/19 09:26:16;;;;;;;;;1.75;1.75;;;;;13.38;100.00;102623.53;4930116;28;50050;-70
2023/02/19 09:28:41;;;;;;;;;0.75;0.75;;;;;13.18;100.00;102585.78;4931530;28;50279;-67
2023/02/19 09:31:10;;;;;;;;;4.00;2.25;;;;;13.65;100.00;102643.91;4931230;28;49908;-67
2023/02/19 09:33:35;;;;;;;;;2.00;1.00;;;;;13.41;100.00;102581.47;4929207;28;52054;-67
2023/02/19 09:36:02;;;;;;;;;2.00;1.00;;;;;13.80;100.00;102669.97;4931480;28;49787;-70
2023/02/19 09:38:29;;;;;;;;;2.00;1.25;;;;;13.87;100.00;102674.66;4931025;28;49790;-70
2023/02/19 09:40:56;;;;;;;;;1.50;1.50;;;;;13.89;100.00;102654.47;4930097;28;49933;-65
2023/02/19 09:43:26;;;;;;;;;3.25;3.25;;;;;13.72;100.00;102619.56;4931149;28;49937;-69
2023/02/19 09:46:01;;;;;;;;;3.25;3.00;;;;;13.47;100.00;102564.94;4931156;28;49899;-68
2023/02/19 09:48:27;;;;;;;;;3.00;3.00;;;;;13.91;100.00;102659.00;4930253;28;49920;-66
2023/02/19 09:50:53;;;;;;;;;2.25;1.25;;;;;13.87;100.00;102646.50;4922957;28;49961;-72
2023/02/19 09:53:28;;;;;;;;;1.75;1.75;;;;;13.61;100.00;102592.75;4921631;28;50973;-68
2023/02/19 09:55:54;;;;;;;;;5.00;4.25;;;;;13.56;100.00;102564.41;4926875;28;49970;-69
2023/02/19 09:58:51;;;;;;;;;3.00;2.25;;;;;13.98;100.00;102636.34;4927744;28;49791;-65
2023/02/19 10:01:17;;;;;;;;;3.25;2.00;;;;;14.10;100.00;102643.84;4926758;28;49722;-66
2023/02/19 10:03:46;;;;;;;;;3.00;3.00;;;;;14.08;100.00;102629.66;4924382;28;50472;-66
2023/02/19 10:06:22;;;;;;;;;3.00;2.50;;;;;14.28;100.00;102661.25;4925439;28;50158;-69
2023/02/19 10:08:50;;;;;;;;;5.75;4.75;;;;;14.31;100.00;102656.06;4925823;28;49751;-65
2023/02/19 10:11:17;;;;;;;;;3.25;3.25;;;;;14.19;100.00;102610.72;4926467;28;49753;-72
2023/02/19 10:14:08;;;;;;;;;4.50;4.00;;;;;14.23;100.00;102615.25;4925774;28;49856;-68
2023/02/19 10:16:34;;;;;;;;;3.50;3.50;;;;;14.48;100.00;102634.66;4933941;28;50130;-72
2023/02/19 10:19:00;;;;;;;;;2.25;2.25;;;;;14.80;100.00;102692.16;4934175;28;49881;-72
2023/02/19 10:21:27;;;;;;;;;1.25;1.25;;;;;14.58;100.00;102639.41;4934190;28;50118;-69
2023/02/19 10:23:55;;;;;;;;;3.75;2.75;;;;;14.72;100.00;102653.97;4932452;28;50912;-73
2023/02/19 10:26:22;;;;;;;;;2.00;0.00;;;;;14.88;100.00;102660.69;4936005;28;49711;-77
2023/02/19 10:28:48;;;;;;;;;2.25;1.50;;;;;14.13;100.00;102515.41;4936398;28;49869;-67
2023/02/19 10:31:20;;;;;;;;;2.00;2.00;;;;;14.70;100.00;102602.81;4943760;28;49824;-71
2023/02/19 10:33:54;;;;;;;;;3.00;3.00;;;;;14.82;100.00;102631.38;4932327;28;50947;-75
2023/02/19 10:36:23;;;;;;;;;2.50;1.50;;;;;15.02;99.05;102651.44;4940239;28;49646;-75
2023/02/19 10:38:49;;;;;;;;;2.50;2.50;;;;;15.50;99.55;102727.97;4934263;28;50123;-73
2023/02/19 10:41:21;;;;;;;;;4.00;3.00;;;;;15.48;96.65;102707.59;4935910;28;49792;-75
2023/02/19 10:44:05;;;;;;;;;2.25;2.25;;;;;15.46;96.83;102741.97;4933705;28;51007;-73
2023/02/19 10:46:40;;;;;;;;;6.25;5.00;;;;;14.97;96.39;102618.69;4936203;28;49917;-77
2023/02/19 10:49:26;;;;;;;;;2.00;2.00;;;;;15.45;97.45;102704.00;4929808;28;50007;-72
2023/02/19 10:51:54;;;;;;;;;3.00;3.00;;;;;14.94;96.36;102641.47;4939819;28;50111;-77
2023/02/19 10:54:30;;;;;;;;;7.25;5.00;;;;;14.91;94.17;102629.03;4933988;28;49877;-78
2023/02/19 10:57:18;;;;;;;;;3.50;3.50;;;;;15.23;94.05;102690.91;4933594;28;49742;-82
2023/02/19 11:00:18;;;;;;;;;4.00;2.75;;;;;15.58;95.07;102754.69;4926791;28;49697;-80
2023/02/19 11:02:44;;;;;;;;;4.00;3.00;;;;;14.40;92.33;102549.78;4939498;28;49759;-73
2023/02/19 11:05:15;;;;;;;;;3.50;3.25;;;;;15.53;94.12;102745.69;4944919;28;50074;-77
2023/02/19 11:07:48;;;;;;;;;4.50;2.50;;;;;15.59;93.36;102753.84;4938186;28;49992;-74
2023/02/19 11:10:33;;;;;;;;;3.75;3.75;;;;;15.64;91.05;102742.59;4939444;28;50166;-74
2023/02/19 11:13:02;;;;;;;;;2.50;2.00;;;;;15.68;89.85;102767.41;4937694;28;49873;-74
2023/02/19 11:15:31;;;;;;;;;4.50;2.50;;;;;15.80;90.52;102725.41;4933197;28;50669;-66
2023/02/19 11:18:01;;;;;;;;;4.00;4.00;;;;;15.96;88.28;102719.72;4932893;28;50019;-73
2023/02/19 11:20:28;;;;;;;;;1.00;1.00;;;;;15.80;86.02;102685.69;4933532;28;50030;-69
2023/02/19 11:23:09;;;;;;;;;2.00;2.00;;;;;15.54;84.80;102623.06;4931596;28;49753;-70
2023/02/19 11:25:34;;;;;;;;;7.00;4.00;;;;;16.17;84.98;102750.34;4932698;28;49806;-67
2023/02/19 11:28:20;;;;;;;;;6.00;4.50;;;;;15.68;84.32;102680.03;4932123;28;49734;-70
2023/02/19 11:30:46;;;;;;;;;4.00;2.75;;;;;15.76;83.93;102677.63;4932643;28;50224;-78
2023/02/19 11:33:23;;;;;;;;;4.25;2.50;;;;;16.08;84.16;102750.06;4933699;28;49941;-77
2023/02/19 11:36:14;;;;;;;;;2.00;2.00;;;;;15.84;83.83;102716.72;4924313;28;49885;-70
2023/02/19 11:38:40;;;;;;;;;3.75;3.00;;;;;15.94;84.74;102768.22;4921763;28;50075;-73
2023/02/19 11:41:14;;;;;;;;;4.25;3.00;;;;;15.98;86.88;102757.75;4928343;28;50696;-73
2023/02/19 11:44:10;;;;;;;;;7.00;5.00;;;;;16.16;87.43;102751.22;4931395;28;49702;-67
2023/02/19 11:47:06;;;;;;;;;6.00;5.25;;;;;16.21;84.04;102758.44;4932643;28;49850;-73
2023/02/19 11:49:50;;;;;;;;;5.25;4.00;;;;;15.81;83.50;102719.25;4932532;28;49620;-69
2023/02/19 11:52:51;;;;;;;;;3.75;3.75;;;;;16.15;83.87;102757.38;4932926;28;49700;-69
2023/02/19 11:55:30;;;;;;;;;4.25;4.25;;;;;15.43;81.93;102638.63;4911783;28;49758;-69
2023/02/19 11:58:14;;;;;;;;;7.50;4.75;;;;;15.53;81.88;102646.00;4932683;28;51028;-69
2023/02/19 12:01:17;;;;;;;;;4.00;4.00;;;;;15.84;83.65;102699.94;4932607;28;49823;-66
2023/02/19 12:04:01;;;;;;;;;5.50;4.75;;;;;16.05;84.45;102761.50;4932676;28;49767;-69
2023/02/19 12:06:57;;;;;;;;;6.25;4.75;;;;;15.85;83.84;102754.69;4932822;28;49928;-69
2023/02/19 12:09:38;;;;;;;;;4.75;4.50;;;;;15.78;86.44;102765.94;4931441;28;50048;-68
2023/02/19 12:12:23;;;;;;;;;7.00;7.00;;;;;15.70;86.66;102763.03;4924197;28;49692;-68
2023/02/19 12:14:57;;;;;;;;;3.00;3.00;;;;;15.72;86.81;102758.69;4946743;28;50017;-70
2023/02/19 12:17:46;;;;;;;;;6.75;6.75;;;;;15.78;88.53;102761.53;4939846;28;49734;-71
2023/02/19 12:20:18;;;;;;;;;8.25;6.75;;;;;15.81;86.86;102752.78;4932538;28;50047;-72
2023/02/19 12:22:43;;;;;;;;;4.00;4.00;;;;;15.82;87.76;102750.19;4931847;28;49881;-69
2023/02/19 12:25:17;;;;;;;;;5.50;5.25;;;;;15.77;87.27;102743.84;4931320;28;49877;-72
2023/02/19 12:27:58;;;;;;;;;8.00;4.00;;;;;15.84;88.35;102745.84;4932441;28;49805;-70
2023/02/19 12:30:42;;;;;;;;;5.50;3.75;;;;;15.99;87.22;102759.53;4930709;28;49897;-68
2023/02/19 12:33:37;;;;;;;;;5.00;3.50;;;;;16.10;86.82;102757.22;4931206;28;49846;-69
2023/02/19 12:36:56;;;;;;;;;3.75;3.00;;;;;16.38;87.11;102743.00;4928100;28;50041;-73
2023/02/19 12:39:37;;;;;;;;;5.75;4.25;;;;;16.44;86.55;102723.75;4891325;29;49845;-68
2023/02/19 12:42:14;;;;;;;;;5.50;5.25;;;;;16.43;84.76;102736.09;4931367;28;50034;-68
2023/02/19 12:44:51;;;;;;;;;5.00;5.00;;;;;16.02;84.59;102639.56;4931220;28;49836;-70
2023/02/19 12:47:23;;;;;;;;;4.75;4.50;;;;;16.07;82.71;102634.38;4925578;28;49885;-68
2023/02/19 12:50:03;;;;;;;;;4.25;3.00;;;;;16.48;84.17;102715.91;4932159;28;49964;-68
2023/02/19 12:52:35;;;;;;;;;5.75;5.25;;;;;15.90;83.10;102604.75;4930818;28;49718;-68
2023/02/19 12:55:18;;;;;;;;;3.75;3.75;;;;;16.57;81.04;102715.25;4930825;28;49680;-70
2023/02/19 12:57:44;;;;;;;;;3.00;3.00;;;;;16.70;80.30;102740.41;4931937;28;49997;-69
2023/02/19 13:00:27;;;;;;;;;4.25;4.25;;;;;15.73;79.34;102576.06;4931741;28;50036;-68
2023/02/19 13:03:12;;;;;;;;;3.75;3.75;;;;;16.23;79.99;102645.44;4931703;28;49990;-68
2023/02/19 13:05:48;;;;;;;;;2.50;2.00;;;;;16.67;80.23;102697.84;4935000;28;50014;-69
2023/02/19 13:08:23;;;;;;;;;3.75;3.25;;;;;16.80;80.59;102703.56;4937518;28;49579;-70
2023/02/19 13:11:00;;;;;;;;;5.25;3.75;;;;;16.33;79.54;102651.88;4931426;28;49826;-69
2023/02/19 13:13:33;;;;;;;;;2.50;1.75;;;;;16.62;79.12;102691.53;4931920;28;49646;-73
2023/02/19 13:16:08;;;;;;;;;4.25;3.75;;;;;15.96;78.60;102584.63;4929469;28;49948;-69
2023/02/19 13:18:53;;;;;;;;;3.50;3.00;;;;;16.46;80.41;102672.56;4925634;28;49870;-70
2023/02/19 13:24:15;;;;;;;;;3.00;3.00;;;;;15.97;80.04;102586.44;4931086;28;50168;-70
2023/02/19 13:27:19;;;;;;;;;5.50;3.75;;;;;16.47;79.97;102689.34;4930653;28;49749;-71
2023/02/19 13:29:53;;;;;;;;;3.25;3.25;;;;;16.34;80.09;102685.47;4934185;28;49796;-77
2023/02/19 13:32:33;;;;;;;;;4.75;4.75;;;;;16.03;79.81;102650.19;4934131;28;49899;-68
2023/02/19 13:35:20;;;;;;;;;4.50;3.50;;;;;16.33;80.91;102685.44;4934520;28;51036;-68
2023/02/19 13:37:47;;;;;;;;;4.25;4.25;;;;;16.00;78.96;102635.94;4931045;28;49842;-69
2023/02/19 13:40:33;;;;;;;;;3.25;3.25;;;;;16.28;81.64;102670.28;4934369;28;49742;-71
2023/02/19 13:43:04;;;;;;;;;4.50;3.75;;;;;16.11;80.00;102617.69;4934850;28;49605;-71
2023/02/19 13:45:38;;;;;;;;;6.00;3.50;;;;;16.40;80.41;102656.47;4932722;28;50831;-69
2023/02/19 13:48:13;;;;;;;;;5.50;4.50;;;;;16.45;80.10;102652.22;4934526;28;49716;-70
2023/02/19 13:50:39;;;;;;;;;5.25;4.25;;;;;15.55;80.40;102489.88;4943292;28;50001;-68
2023/02/19 13:53:44;;;;;;;;;7.75;6.00;;;;;16.39;80.55;102646.72;4934432;28;49873;-69
2023/02/19 13:56:33;;;;;;;;;4.00;4.00;;;;;16.34;80.41;102648.38;4934480;28;49879;-69
2023/02/19 13:59:10;;;;;;;;;5.75;5.75;;;;;16.31;81.71;102621.81;4934002;28;49704;-69
2023/02/19 14:01:48;;;;;;;;;8.25;6.75;;;;;16.33;80.26;102629.78;4934216;28;49755;-71
2023/02/19 14:04:39;;;;;;;;;5.00;5.00;;;;;16.24;79.60;102627.78;4934649;28;49966;-69
2023/02/19 14:07:04;;;;;;;;;5.50;5.00;;;;;16.18;79.46;102627.59;4933035;28;50182;-71
2023/02/19 14:09:36;;;;;;;;;10.00;8.25;;;;;16.12;79.17;102631.00;4933808;28;49767;-69
2023/02/19 14:12:24;;;;;;;;;5.00;5.00;;;;;15.63;78.63;102557.19;4934618;28;49999;-69
2023/02/19 14:14:53;;;;;;;;;3.25;3.00;;;;;15.41;78.73;102542.41;4926942;28;49993;-69
2023/02/19 14:17:24;;;;;;;;;7.00;7.00;;;;;15.98;80.73;102642.94;4933669;28;50702;-70
2023/02/19 14:19:49;;;;;;;;;6.75;5.50;;;;;16.01;80.27;102646.56;4934241;28;49713;-71
2023/02/19 14:22:46;;;;;;;;;5.25;5.00;;;;;16.14;80.49;102645.19;4934291;28;49746;-69
2023/02/19 14:25:29;;;;;;;;;6.75;5.00;;;;;16.20;80.66;102661.22;4934119;28;49737;-68
2023/02/19 14:28:03;;;;;;;;;15.75;12.25;;;;;16.25;80.92;102661.38;4934156;28;50703;-68
2023/02/19 14:30:32;;;;;;;;;10.75;9.00;;;;;16.02;82.22;102619.25;4933634;28;49826;-68
2023/02/19 14:32:59;;;;;;;;;5.75;4.75;;;;;16.25;81.04;102653.44;4934453;28;49735;-69
2023/02/19 14:35:36;;;;;;;;;15.25;13.00;;;;;16.33;81.33;102669.53;4933840;28;49865;-68
2023/02/19 14:38:03;;;;;;;;;15.00;14.00;;;;;16.32;80.89;102676.59;4933934;28;49857;-70
2023/02/19 14:40:37;;;;;;;;;10.25;10.25;;;;;16.09;81.66;102656.50;4933809;28;49828;-69
2023/02/19 14:43:05;;;;;;;;;13.75;13.50;;;;;16.16;83.46;102663.78;4934707;28;49739;-71
2023/02/19 14:45:40;;;;;;;;;13.00;11.75;;;;;15.61;82.63;102582.72;4933595;28;50112;-69
2023/02/19 14:48:13;;;;;;;;;13.25;12.75;;;;;15.65;82.71;102595.22;4932873;28;50465;-69
2023/02/19 14:50:38;;;;;;;;;10.00;8.50;;;;;15.41;83.09;102572.41;4933626;28;49850;-70
2023/02/19 14:53:06;;;;;;;;;11.75;11.75;;;;;15.92;83.97;102686.06;4927448;28;49747;-69
2023/02/19 14:55:38;;;;;;;;;15.00;13.50;;;;;15.74;84.07;102659.03;4933490;28;49567;-70
2023/02/19 14:58:09;;;;;;;;;14.00;12.50;;;;;15.38;84.08;102584.69;4933839;28;50821;-72
2023/02/19 15:00:36;;;;;;;;;11.50;10.00;;;;;15.88;82.19;102693.84;4933209;28;50010;-72
2023/02/19 15:03:03;;;;;;;;;10.00;10.00;;;;;15.59;84.93;102661.19;4933536;28;49745;-68
2023/02/19 15:05:32;;;;;;;;;12.25;11.00;;;;;15.43;84.57;102628.03;4932420;28;50209;-68
2023/02/19 15:08:01;;;;;;;;;19.50;10.75;;;;;15.36;83.93;102615.50;4933354;28;51206;-71
2023/02/19 15:10:29;;;;;;;;;10.50;10.00;;;;;15.83;85.64;102703.44;4933684;28;49710;-73
2023/02/19 15:13:05;;;;;;;;;12.50;11.50;;;;;15.34;84.59;102631.28;4934705;28;49801;-71
2023/02/19 15:15:35;;;;;;;;;13.50;12.25;;;;;15.68;85.29;102706.50;4933080;28;49682;-68
2023/02/19 15:18:02;;;;;;;;;6.50;6.50;;;;;15.66;84.90;102692.31;4935736;28;49973;-71
2023/02/19 15:20:32;;;;;;;;;8.50;7.00;;;;;15.57;85.31;102681.41;4934569;28;49742;-72
2023/02/19 15:23:00;;;;;;;;;7.75;7.75;;;;;15.40;85.11;102660.59;4933675;28;49845;-71
2023/02/19 15:25:32;;;;;;;;;9.00;8.25;;;;;15.03;85.83;102605.63;4933997;28;50169;-71
2023/02/19 15:28:19;;;;;;;;;4.75;4.75;;;;;15.43;85.70;102691.56;4932732;28;49816;-72
2023/02/19 15:30:45;;;;;;;;;6.75;6.75;;;;;14.74;85.95;102578.25;4931907;28;50543;-73
2023/02/19 15:33:16;;;;;;;;;7.00;6.50;;;;;15.23;85.81;102688.28;4933052;28;49966;-72
2023/02/19 15:35:51;;;;;;;;;12.00;9.25;;;;;14.54;87.23;102588.16;4933468;28;49582;-75
2023/02/19 15:38:17;;;;;;;;;7.00;7.00;;;;;14.97;87.92;102634.56;4931188;28;51190;-71
2023/02/19 15:40:45;;;;;;;;;6.25;6.25;;;;;14.88;86.71;102634.25;4932591;28;49932;-71
2023/02/19 15:43:43;;;;;;;;;6.00;6.00;;;;;15.17;87.31;102681.06;4932976;28;49636;-71
2023/02/19 15:46:18;;;;;;;;;6.75;6.00;;;;;14.91;87.25;102636.09;4932230;28;50093;-71
2023/02/19 15:48:53;;;;;;;;;8.25;5.50;;;;;15.00;88.30;102646.97;4932469;28;50928;-70
2023/02/19 15:51:28;;;;;;;;;7.50;7.50;;;;;14.74;87.47;102617.00;4932809;28;49755;-72
2023/02/19 15:54:02;;;;;;;;;8.25;6.00;;;;;13.98;88.49;102520.16;4932771;28;49912;-74
2023/02/19 15:56:35;;;;;;;;;7.50;7.50;;;;;14.09;88.09;102508.25;4908763;28;49861;-76
2023/02/19 15:59:14;;;;;;;;;10.50;9.75;;;;;14.18;88.58;102526.13;4910521;28;50066;-70
2023/02/19 16:01:40;;;;;;;;;9.00;6.75;;;;;13.94;90.05;102519.16;4912501;28;49794;-73
2023/02/19 16:04:12;;;;;;;;;9.00;9.00;;;;;14.66;90.35;102634.34;4908330;28;49718;-68
2023/02/19 16:07:00;;;;;;;;;10.25;9.50;;;;;14.65;91.54;102651.97;4911378;28;50015;-71
2023/02/19 16:09:36;;;;;;;;;4.75;4.75;;;;;14.74;91.34;102677.81;4910431;28;50875;-70
2023/02/19 16:12:18;;;;;;;;;8.50;8.50;;;;;14.48;92.29;102642.59;4908679;28;49793;-70
2023/02/19 16:14:44;;;;;;;;;12.50;9.50;;;;;14.38;92.58;102654.53;4913836;28;49947;-69
2023/02/19 16:17:09;;;;;;;;;10.50;10.00;;;;;14.73;93.00;102692.78;4912846;28;50047;-68
2023/02/19 16:19:46;;;;;;;;;11.75;8.50;;;;;14.45;94.00;102643.34;4915327;28;50130;-69
2023/02/19 16:22:18;;;;;;;;;12.00;10.00;;;;;14.20;94.04;102586.09;4909212;28;49548;-69
2023/02/19 16:24:53;;;;;;;;;10.75;9.75;;;;;14.70;94.49;102668.91;4904772;28;49718;-70
2023/02/19 16:27:31;;;;;;;;;13.50;12.50;;;;;13.87;94.88;102519.78;4909417;28;49719;-71
2023/02/19 16:29:57;;;;;;;;;12.25;11.25;;;;;14.36;95.09;102611.28;4905466;28;50739;-76
2023/02/19 16:32:23;;;;;;;;;6.50;6.25;;;;;14.00;95.44;102568.66;4916221;28;50919;-79
2023/02/19 16:34:50;;;;;;;;;9.75;9.75;;;;;14.15;95.38;102611.44;4918031;28;49688;-77
2023/02/19 16:37:36;;;;;;;;;10.75;10.25;;;;;14.49;96.63;102665.53;4906736;28;50008;-79
2023/02/19 16:40:07;;;;;;;;;11.50;10.25;;;;;14.48;96.71;102666.38;4915419;28;50039;-69
2023/02/19 16:42:34;;;;;;;;;12.25;10.25;;;;;14.28;97.46;102647.09;4913650;28;50188;-70
2023/02/19 16:44:59;;;;;;;;;10.75;10.50;;;;;14.06;97.68;102607.56;4913732;28;50223;-69
2023/02/19 16:47:31;;;;;;;;;11.75;11.25;;;;;13.87;97.93;102569.03;4905255;28;49906;-69
2023/02/19 16:49:59;;;;;;;;;9.25;9.25;;;;;14.37;98.15;102670.31;4915947;28;49674;-69
2023/02/19 16:52:25;;;;;;;;;13.25;11.75;;;;;14.05;98.99;102638.38;4916166;28;50359;-68
2023/02/19 16:54:50;;;;;;;;;13.25;11.50;;;;;13.69;99.90;102593.91;4925687;28;49679;-68
2023/02/19 16:57:16;;;;;;;;;12.75;12.75;;;;;14.00;100.00;102658.44;4909264;28;50112;-68
2023/02/19 16:59:41;;;;;;;;;12.50;12.50;;;;;13.41;100.00;102564.69;4911751;28;49782;-70
2023/02/19 17:02:13;;;;;;;;;16.75;14.00;;;;;13.93;100.00;102653.75;4908969;28;49795;-70
2023/02/19 17:04:38;;;;;;;;;16.25;15.25;;;;;13.77;100.00;102617.06;4913114;28;49823;-69
2023/02/19 17:07:04;;;;;;;;;19.00;15.75;;;;;13.79;100.00;102633.84;4920281;28;49986;-69
2023/02/19 17:09:29;;;;;;;;;15.00;13.25;;;;;13.90;100.00;102678.31;4916699;28;50875;-68
2023/02/19 17:11:55;;;;;;;;;19.00;18.00;;;;;13.56;100.00;102619.81;4913378;28;49803;-68
2023/02/19 17:14:20;;;;;;;;;21.00;19.75;;;;;13.18;100.00;102588.44;4919178;28;49884;-71
2023/02/19 17:16:46;;;;;;;;;23.50;21.00;;;;;13.25;100.00;102601.91;4910369;28;49774;-71
2023/02/19 17:19:17;;;;;;;;;22.00;20.25;;;;;13.06;100.00;102580.03;4910161;28;50391;-69
2023/02/19 17:21:44;;;;;;;;;18.50;18.00;;;;;13.70;100.00;102711.88;4917144;28;49700;-69
2023/02/19 17:24:09;;;;;;;;;31.50;22.00;;;;;13.38;100.00;102678.03;4913971;28;49680;-67
2023/02/19 17:26:35;;;;;;;;;20.00;19.00;;;;;13.43;100.00;102701.13;4912068;28;49993;-67
2023/02/19 17:29:03;;;;;;;;;28.00;22.00;;;;;13.55;100.00;102734.13;4913062;28;51309;-67
2023/02/19 17:31:29;;;;;;;;;23.00;20.50;;;;;13.45;100.00;102717.00;4919073;28;49847;-68
2023/02/19 17:33:54;;;;;;;;;26.25;24.50;;;;;13.47;100.00;102723.25;4911610;28;50134;-68
2023/02/19 17:36:23;;;;;;;;;21.00;21.00;;;;;13.45;100.00;102727.56;4914017;28;50207;-67
2023/02/19 17:38:48;;;;;;;;;22.75;22.00;;;;;12.56;100.00;102594.72;4911823;28;50060;-68
2023/02/19 17:41:14;;;;;;;;;25.00;23.75;;;;;13.34;100.00;102724.50;4913005;28;50944;-67
2023/02/19 17:43:39;;;;;;;;;21.00;14.75;;;;;13.32;100.00;102736.75;4913030;28;50119;-66
2023/02/19 17:46:05;;;;;;;;;27.75;27.75;;;;;13.15;100.00;102712.25;4912360;28;50240;-65
2023/02/19 17:48:30;;;;;;;;;29.00;26.75;;;;;13.07;100.00;102716.31;4916761;28;49897;-66
2023/02/19 17:50:56;;;;;;;;;36.75;30.00;;;;;13.17;100.00;102738.69;4912756;28;50040;-66
2023/02/19 17:53:21;;;;;;;;;31.25;28.50;;;;;13.04;100.00;102734.66;4923188;28;49827;-68
2023/02/19 17:55:47;;;;;;;;;28.75;26.50;;;;;13.11;100.00;102748.97;4911913;28;50087;-75
2023/02/19 17:58:12;;;;;;;;;29.50;28.50;;;;;13.06;100.00;102761.06;4900244;28;51059;-66
2023/02/19 18:00:38;;;;;;;;;29.75;27.75;;;;;12.91;100.00;102727.03;4918225;28;49839;-68
2023/02/19 18:03:03;;;;;;;;;30.25;28.00;;;;;12.93;100.00;102748.19;4934383;28;49817;-73
2023/02/19 18:05:30;;;;;;;;;33.75;33.75;;;;;12.86;100.00;102742.69;4932655;28;50016;-68
2023/02/19 18:07:55;;;;;;;;;31.25;27.25;;;;;12.92;100.00;102764.84;4934295;28;49713;-67
2023/02/19 18:10:22;;;;;;;;;34.25;30.00;;;;;12.76;100.00;102758.94;4934458;28;49781;-71
2023/02/19 18:12:47;;;;;;;;;37.00;31.25;;;;;12.82;100.00;102782.00;4934548;28;49719;-67
2023/02/19 18:15:19;;;;;;;;;34.00;31.25;;;;;12.78;100.00;102787.97;4933436;28;49882;-66
2023/02/19 18:17:44;;;;;;;;;36.25;30.75;;;;;12.69;100.00;102785.84;4942584;28;49699;-70
2023/02/19 18:20:15;;;;;;;;;33.50;28.00;;;;;12.71;100.00;102792.06;4937448;28;49868;-66
2023/02/19 18:22:41;;;;;;;;;32.50;31.75;;;;;12.66;100.00;102790.97;4940464;28;49878;-69
2023/02/19 18:25:07;;;;;;;;;43.25;35.75;;;;;12.59;100.00;102789.81;4937322;28;49837;-66
2023/02/19 18:27:32;;;;;;;;;37.25;35.50;;;;;12.66;100.00;102811.16;4946447;28;49898;-67
2023/02/19 18:29:57;;;;;;;;;39.00;34.00;;;;;12.45;100.00;102780.38;4941681;28;49768;-70
2023/02/19 18:32:25;;;;;;;;;35.00;28.25;;;;;12.46;100.00;102790.09;4933947;28;50209;-72
2023/02/19 18:34:53;;;;;;;;;38.25;33.75;;;;;12.53;100.00;102801.78;4932801;28;49862;-65
2023/02/19 18:37:19;;;;;;;;;40.00;35.50;;;;;12.50;100.00;102805.19;4933773;28;50901;-69
2023/02/19 18:39:44;;;;;;;;;33.00;32.00;;;;;12.49;100.00;102813.94;4934027;28;49648;-72
2023/02/19 18:42:11;;;;;;;;;47.75;35.00;;;;;12.46;100.00;102807.63;4928499;28;50147;-71
2023/02/19 18:44:37;;;;;;;;;39.50;33.25;;;;;12.32;100.00;102801.72;4934313;28;50067;-68
2023/02/19 18:47:03;;;;;;;;;36.75;32.75;;;;;12.33;100.00;102804.41;4933205;28;49936;-66
2023/02/19 18:49:28;;;;;;;;;38.75;33.00;;;;;12.29;100.00;102798.94;4933718;28;49703;-67
2023/02/19 18:51:54;;;;;;;;;37.75;36.25;;;;;12.10;100.00;102765.59;4933428;28;49945;-67
2023/02/19 18:54:23;;;;;;;;;40.75;34.75;;;;;12.10;100.00;102777.88;4932514;28;50084;-70
2023/02/19 18:56:48;;;;;;;;;43.00;38.00;;;;;11.99;100.00;102765.09;4933428;28;50977;-78
2023/02/19 18:59:14;;;;;;;;;40.75;37.00;;;;;12.12;100.00;102798.16;4933964;28;49568;-78
2023/02/19 19:01:39;;;;;;;;;43.50;37.75;;;;;12.08;100.00;102800.59;4933458;28;49829;-73
2023/02/19 19:04:05;;;;;;;;;50.50;41.00;;;;;12.08;100.00;102809.38;4934873;28;50513;-76
2023/02/19 19:06:31;;;;;;;;;47.25;39.00;;;;;11.62;100.00;102733.47;4934933;28;49972;-78
2023/02/19 19:09:00;;;;;;;;;46.50;38.00;;;;;12.09;100.00;102819.09;4933428;28;50049;-74
2023/02/19 19:11:25;;;;;;;;;43.50;37.50;;;;;11.75;100.00;102764.78;4933784;28;49833;-70
2023/02/19 19:13:51;;;;;;;;;47.25;39.75;;;;;11.87;100.00;102790.84;4934108;28;49793;-72
2023/02/19 19:16:17;;;;;;;;;53.00;41.75;;;;;11.84;100.00;102785.41;4933564;28;49976;-69
2023/02/19 19:18:42;;;;;;;;;41.25;36.25;;;;;11.88;100.00;102789.13;4933262;28;49694;-73
2023/02/19 19:21:08;;;;;;;;;52.00;43.50;;;;;11.61;100.00;102747.47;4934081;28;49845;-68
2023/02/19 19:23:34;;;;;;;;;43.75;39.50;;;;;11.52;100.00;102738.22;4934763;28;49976;-73
2023/02/19 19:26:02;;;;;;;;;47.50;40.75;;;;;11.80;100.00;102801.00;4933051;28;49835;-75
2023/02/19 19:28:29;;;;;;;;;56.25;44.75;;;;;11.75;100.00;102798.09;4933361;28;49754;-71
2023/02/19 19:30:55;;;;;;;;;54.00;43.00;;;;;11.46;100.00;102759.84;4931539;28;49723;-67
2023/02/19 19:33:20;;;;;;;;;55.50;45.50;;;;;11.20;100.00;102720.88;4932159;28;49917;-66
2023/02/19 19:35:46;;;;;;;;;51.75;41.50;;;;;11.46;100.00;102763.38;4947731;28;51418;-70
2023/02/19 19:38:11;;;;;;;;;48.25;40.75;;;;;11.16;100.00;102719.81;4932132;28;49906;-71
2023/02/19 19:40:36;;;;;;;;;54.50;42.50;;;;;11.25;100.00;102769.31;4931863;28;49824;-69
2023/02/19 19:43:02;;;;;;;;;52.50;41.75;;;;;11.62;100.00;102824.66;4931938;28;50058;-71
2023/02/19 19:45:27;;;;;;;;;52.25;41.50;;;;;11.17;100.00;102758.41;4932414;28;49847;-72
2023/02/19 19:47:53;;;;;;;;;49.25;39.75;;;;;11.04;100.00;102729.72;4932998;28;49540;-71
2023/02/19 19:50:18;;;;;;;;;57.25;45.50;;;;;10.58;100.00;102657.34;4932736;28;49581;-76
2023/02/19 19:52:44;;;;;;;;;54.50;43.00;;;;;11.21;100.00;102775.25;4932979;28;49604;-70
2023/02/19 19:55:09;;;;;;;;;49.50;42.00;;;;;11.06;100.00;102775.38;4932578;28;49865;-72
2023/02/19 19:57:35;;;;;;;;;56.00;44.00;;;;;10.55;100.00;102715.00;4932725;28;50028;-70
2023/02/19 20:00:01;;;;;;;;;54.75;45.00;;;;;10.67;100.00;102693.69;4932717;28;49786;-71
2023/02/19 20:02:27;;;;;;;;;51.00;44.00;;;;;11.30;100.00;102828.31;4932708;28;49874;-70
2023/02/19 20:04:52;;;;;;;;;51.00;41.50;;;;;9.51;100.00;102524.91;4924790;28;50745;-70
2023/02/19 20:07:18;;;;;;;;;51.00;41.75;;;;;11.10;100.00;102787.88;4918909;28;50127;-67